createdAt,value
2023-03-06T00:01:09.771Z,3.62
2023-03-06T00:03:41.137Z,3.61
2023-03-06T00:06:15.532Z,3.59
2023-03-06T00:08:42.158Z,3.59
2023-03-06T00:11:15.580Z,3.58
2023-03-06T00:13:44.620Z,3.58
2023-03-06T00:16:13.685Z,3.50
2023-03-06T00:18:40.409Z,3.49
2023-03-06T00:21:08.194Z,3.51
2023-03-06T00:23:34.852Z,3.49
2023-03-06T00:26:01.490Z,3.45
2023-03-06T00:28:31.059Z,3.40
2023-03-06T00:31:00.538Z,3.42
2023-03-06T00:33:31.237Z,3.35
2023-03-06T00:36:04.805Z,3.37
2023-03-06T00:38:33.524Z,3.37
2023-03-06T00:41:00.148Z,3.34
2023-03-06T00:43:32.698Z,3.41
2023-03-06T00:45:59.381Z,3.41
2023-03-06T00:48:28.489Z,3.40
2023-03-06T00:50:55.233Z,3.42
2023-03-06T00:53:28.964Z,3.37
2023-03-06T00:55:58.786Z,3.31
2023-03-06T00:58:30.602Z,3.37
2023-03-06T01:00:57.271Z,3.38
2023-03-06T01:03:26.224Z,3.29
2023-03-06T01:05:52.857Z,3.31
2023-03-06T01:08:21.856Z,3.18
2023-03-06T01:10:48.479Z,3.35
2023-03-06T01:13:16.090Z,3.35
2023-03-06T01:15:47.579Z,3.31
2023-03-06T01:18:21.663Z,3.35
2023-03-06T01:20:53.884Z,3.34
2023-03-06T01:23:23.018Z,3.33
2023-03-06T01:25:49.614Z,3.33
2023-03-06T01:28:22.322Z,3.36
2023-03-06T01:30:54.349Z,3.29
2023-03-06T01:33:21.010Z,3.42
2023-03-06T01:35:47.753Z,3.44
2023-03-06T01:38:16.659Z,3.39
2023-03-06T01:40:48.690Z,3.45
2023-03-06T01:43:26.847Z,3.46
2023-03-06T01:46:30.846Z,3.43
2023-03-06T01:49:02.336Z,3.36
2023-03-06T01:51:33.513Z,3.37
2023-03-06T01:54:08.828Z,3.32
2023-03-06T01:56:40.972Z,3.34
2023-03-06T01:59:13.072Z,3.37
2023-03-06T02:01:46.677Z,3.38
2023-03-06T02:04:16.899Z,3.29
2023-03-06T02:06:47.602Z,3.32
2023-03-06T02:09:17.044Z,3.18
2023-03-06T02:11:46.456Z,3.22
2023-03-06T02:14:18.320Z,3.26
2023-03-06T02:16:50.678Z,3.20
2023-03-06T02:19:42.821Z,3.23
2023-03-06T02:22:14.490Z,3.11
2023-03-06T02:25:00.713Z,3.16
2023-03-06T02:27:32.940Z,3.12
2023-03-06T02:29:59.673Z,3.03
2023-03-06T02:32:29.279Z,3.07
2023-03-06T02:35:00.038Z,2.99
2023-03-06T02:37:30.394Z,3.12
2023-03-06T02:40:08.333Z,3.07
2023-03-06T02:42:35.370Z,3.06
2023-03-06T02:45:03.586Z,3.04
2023-03-06T02:47:35.508Z,3.03
2023-03-06T02:50:02.279Z,3.01
2023-03-06T02:52:31.247Z,3.01
2023-03-06T02:55:00.246Z,2.98
2023-03-06T02:57:26.890Z,3.00
2023-03-06T03:00:00.922Z,3.01
2023-03-06T03:02:27.729Z,2.89
2023-03-06T03:05:00.325Z,3.03
2023-03-06T03:07:26.979Z,2.99
2023-03-06T03:09:55.901Z,2.89
2023-03-06T03:12:25.395Z,2.90
2023-03-06T03:14:52.006Z,2.93
2023-03-06T03:17:21.012Z,2.83
2023-03-06T03:19:51.601Z,2.97
2023-03-06T03:22:23.061Z,3.00
2023-03-06T03:24:50.185Z,2.98
2023-03-06T03:27:21.346Z,2.90
2023-03-06T03:29:50.754Z,3.01
2023-03-06T03:32:18.713Z,3.01
2023-03-06T03:34:50.232Z,3.01
2023-03-06T03:37:20.351Z,2.97
2023-03-06T03:39:53.280Z,2.85
2023-03-06T03:42:22.662Z,2.87
2023-03-06T03:44:53.709Z,2.95
2023-03-06T03:47:24.068Z,2.98
2023-03-06T03:49:56.221Z,3.01
2023-03-06T03:52:24.208Z,2.93
2023-03-06T03:54:55.750Z,2.89
2023-03-06T03:57:22.629Z,2.89
2023-03-06T03:59:59.214Z,2.80
2023-03-06T04:02:40.786Z,2.75
2023-03-06T04:05:22.603Z,2.74
2023-03-06T04:07:55.122Z,2.80
2023-03-06T04:10:26.402Z,2.82
2023-03-06T04:12:54.047Z,2.83
2023-03-06T04:15:20.926Z,2.86
2023-03-06T04:17:49.377Z,2.82
2023-03-06T04:20:27.965Z,2.78
2023-03-06T04:22:58.183Z,2.82
2023-03-06T04:25:27.216Z,2.88
2023-03-06T04:27:58.746Z,2.78
2023-03-06T04:30:25.803Z,2.80
2023-03-06T04:32:54.764Z,2.82
2023-03-06T04:35:24.202Z,2.81
2023-03-06T04:38:04.376Z,2.82
2023-03-06T04:40:34.753Z,2.81
2023-03-06T04:43:04.879Z,2.82
2023-03-06T04:45:32.567Z,2.81
2023-03-06T04:48:04.021Z,2.83
2023-03-06T04:50:33.438Z,2.78
2023-03-06T04:53:05.497Z,2.82
2023-03-06T04:55:35.012Z,2.81
2023-03-06T04:58:04.381Z,2.80
2023-03-06T05:00:33.354Z,2.76
2023-03-06T05:03:02.716Z,2.74
2023-03-06T05:05:29.600Z,2.81
2023-03-06T05:07:56.432Z,2.76
2023-03-06T05:10:25.913Z,2.77
2023-03-06T05:12:52.543Z,2.84
2023-03-06T05:15:21.428Z,2.81
2023-03-06T05:17:48.144Z,2.79
2023-03-06T05:20:15.665Z,2.87
2023-03-06T05:22:45.010Z,2.83
2023-03-06T05:25:14.105Z,2.85
2023-03-06T05:27:45.825Z,2.82
2023-03-06T05:30:16.160Z,2.82
2023-03-06T05:32:45.235Z,2.79
2023-03-06T05:35:20.957Z,2.86
2023-03-06T05:37:50.589Z,2.86
2023-03-06T05:40:18.892Z,2.87
2023-03-06T05:42:48.017Z,2.86
2023-03-06T05:45:17.157Z,2.84
2023-03-06T05:47:46.322Z,2.81
2023-03-06T05:50:20.199Z,2.72
2023-03-06T05:52:54.600Z,2.78
2023-03-06T05:55:21.856Z,2.74
2023-03-06T05:57:50.908Z,2.76
2023-03-06T06:00:20.774Z,2.79
2023-03-06T06:02:54.621Z,2.81
2023-03-06T06:05:21.317Z,2.81
2023-03-06T06:07:52.880Z,2.75
2023-03-06T06:10:21.844Z,2.73
2023-03-06T06:12:48.452Z,2.71
2023-03-06T06:15:20.050Z,2.79
2023-03-06T06:17:51.492Z,2.75
2023-03-06T06:20:20.798Z,2.82
2023-03-06T06:22:47.409Z,2.79
2023-03-06T06:25:14.313Z,2.82
2023-03-06T06:27:43.546Z,2.84
2023-03-06T06:30:13.263Z,2.86
2023-03-06T06:32:44.757Z,2.78
2023-03-06T06:35:16.664Z,2.78
2023-03-06T06:37:45.831Z,2.84
2023-03-06T06:40:15.159Z,2.87
2023-03-06T06:42:41.913Z,2.78
2023-03-06T06:45:11.715Z,2.87
2023-03-06T06:47:41.794Z,2.89
2023-03-06T06:50:17.264Z,2.91
2023-03-06T06:52:48.684Z,2.84
2023-03-06T06:55:15.320Z,2.85
2023-03-06T06:57:44.316Z,2.92
2023-03-06T07:00:15.124Z,2.97
2023-03-06T07:02:44.264Z,2.96
2023-03-06T07:05:13.260Z,2.93
2023-03-06T07:07:44.989Z,2.93
2023-03-06T07:10:19.941Z,2.93
2023-03-06T07:12:47.464Z,2.94
2023-03-06T07:15:15.552Z,2.99
2023-03-06T07:17:49.830Z,3.02
2023-03-06T07:20:23.037Z,3.05
2023-03-06T07:22:52.071Z,3.06
2023-03-06T07:25:25.473Z,3.07
2023-03-06T07:27:57.660Z,3.14
2023-03-06T07:30:29.335Z,3.13
2023-03-06T07:33:00.084Z,3.18
2023-03-06T07:35:31.514Z,3.18
2023-03-06T07:38:00.764Z,3.15
2023-03-06T07:40:29.725Z,3.16
2023-03-06T07:43:13.014Z,3.20
2023-03-06T07:45:56.575Z,3.22
2023-03-06T07:48:23.208Z,3.26
2023-03-06T07:50:58.458Z,3.26
2023-03-06T07:53:26.030Z,3.26
2023-03-06T07:55:53.105Z,3.23
2023-03-06T07:58:22.111Z,3.25
2023-03-06T08:00:51.071Z,3.26
2023-03-06T08:03:24.753Z,3.37
2023-03-06T08:06:04.229Z,3.39
2023-03-06T08:08:30.842Z,3.37
2023-03-06T08:10:57.511Z,3.45
2023-03-06T08:13:26.154Z,3.49
2023-03-06T08:15:56.318Z,3.48
2023-03-06T08:18:25.384Z,3.55
2023-03-06T08:21:01.803Z,3.56
2023-03-06T08:23:28.541Z,3.58
2023-03-06T08:26:01.558Z,3.66
2023-03-06T08:28:33.906Z,3.66
2023-03-06T08:31:11.698Z,3.71
2023-03-06T08:33:44.270Z,3.70
2023-03-06T08:36:13.198Z,3.72
2023-03-06T08:38:42.540Z,3.64
2023-03-06T08:41:11.509Z,3.68
2023-03-06T08:43:40.560Z,3.79
2023-03-06T08:46:14.778Z,3.80
2023-03-06T08:48:47.774Z,3.80
2023-03-06T08:51:16.778Z,3.72
2023-03-06T08:53:46.228Z,3.75
2023-03-06T08:56:20.487Z,3.69
2023-03-06T08:58:50.908Z,3.73
2023-03-06T09:01:27.769Z,3.78
2023-03-06T09:04:02.253Z,3.80
2023-03-06T09:06:32.542Z,3.84
2023-03-06T09:08:59.782Z,3.83
2023-03-06T09:11:27.280Z,3.83
2023-03-06T09:13:57.054Z,3.88
2023-03-06T09:16:24.462Z,3.93
2023-03-06T09:18:54.133Z,3.93
2023-03-06T09:21:22.269Z,3.98
2023-03-06T09:23:54.054Z,4.04
2023-03-06T09:26:43.284Z,4.01
2023-03-06T09:29:12.684Z,4.09
2023-03-06T09:31:43.963Z,4.04
2023-03-06T09:34:13.153Z,4.18
2023-03-06T09:36:56.615Z,4.21
2023-03-06T09:39:28.092Z,4.23
2023-03-06T09:41:58.517Z,4.21
2023-03-06T09:44:34.544Z,4.29
2023-03-06T09:47:24.900Z,4.34
2023-03-06T09:50:12.710Z,4.32
2023-03-06T09:53:15.409Z,4.37
2023-03-06T09:55:51.711Z,4.28
2023-03-06T09:58:25.154Z,4.30
2023-03-06T10:01:01.066Z,4.46
2023-03-06T10:03:32.334Z,4.45
2023-03-06T10:06:06.845Z,4.49
2023-03-06T10:08:45.809Z,4.54
2023-03-06T10:11:22.309Z,4.58
2023-03-06T10:13:54.204Z,4.60
2023-03-06T10:16:31.166Z,4.62
2023-03-06T10:19:03.591Z,4.55
2023-03-06T10:21:55.311Z,4.64
2023-03-06T10:24:46.898Z,4.68
2023-03-06T10:27:40.704Z,4.71
2023-03-06T10:30:32.805Z,4.71
2023-03-06T10:33:01.880Z,4.72
2023-03-06T10:35:42.323Z,4.75
2023-03-06T10:38:37.501Z,4.77
2023-03-06T10:41:15.450Z,4.78
2023-03-06T10:44:04.779Z,4.82
2023-03-06T10:46:41.847Z,4.81
2023-03-06T10:49:30.086Z,4.86
2023-03-06T10:52:07.719Z,4.87
2023-03-06T10:54:43.080Z,4.87
2023-03-06T10:57:29.680Z,4.85
2023-03-06T11:00:01.250Z,4.91
2023-03-06T11:02:34.028Z,4.94
2023-03-06T11:05:09.391Z,4.94
2023-03-06T11:07:52.911Z,4.97
2023-03-06T11:10:20.558Z,4.99
2023-03-06T11:12:58.736Z,4.98
2023-03-06T11:15:27.386Z,4.94
2023-03-06T11:17:56.604Z,4.94
2023-03-06T11:20:48.606Z,4.95
2023-03-06T11:23:31.476Z,4.97
2023-03-06T11:26:02.594Z,4.92
2023-03-06T11:28:37.342Z,4.95
2023-03-06T11:31:10.530Z,4.93
2023-03-06T11:33:52.944Z,4.92
2023-03-06T11:36:29.288Z,5.00
2023-03-06T11:38:56.460Z,4.93
2023-03-06T11:41:57.867Z,4.96
2023-03-06T11:44:54.067Z,4.98
2023-03-06T11:47:32.036Z,4.95
2023-03-06T11:50:20.300Z,5.01
2023-03-06T11:53:00.412Z,4.96
2023-03-06T11:56:00.071Z,4.99
2023-03-06T11:59:07.782Z,4.95
2023-03-06T12:01:41.268Z,4.88
2023-03-06T12:04:19.256Z,4.90
2023-03-06T12:07:10.359Z,4.90
2023-03-06T12:09:56.808Z,4.76
2023-03-06T12:12:45.823Z,4.91
2023-03-06T12:15:14.716Z,4.92
2023-03-06T12:17:55.153Z,4.90
2023-03-06T12:20:58.778Z,4.87
2023-03-06T12:23:37.593Z,4.84
2023-03-06T12:26:22.292Z,4.85
2023-03-06T12:29:06.442Z,4.83
2023-03-06T12:32:10.234Z,4.82
2023-03-06T12:34:57.688Z,4.81
2023-03-06T12:37:49.379Z,4.82
2023-03-06T12:40:23.585Z,4.86
2023-03-06T12:43:10.808Z,4.88
2023-03-06T12:45:40.944Z,4.89
2023-03-06T12:48:18.533Z,4.91
2023-03-06T12:50:46.049Z,4.88
2023-03-06T12:53:23.576Z,4.80
2023-03-06T12:55:51.002Z,4.83
2023-03-06T12:58:32.515Z,4.79
2023-03-06T13:01:20.031Z,4.77
2023-03-06T13:04:07.092Z,4.77
2023-03-06T13:06:54.213Z,4.81
2023-03-06T13:09:42.214Z,4.82
2023-03-06T13:12:28.938Z,4.82
2023-03-06T13:14:58.373Z,4.72
2023-03-06T13:17:34.485Z,4.67
2023-03-06T13:20:26.974Z,4.55
2023-03-06T13:22:56.734Z,4.53
2023-03-06T13:25:28.939Z,4.51
2023-03-06T13:27:57.695Z,4.52
2023-03-06T13:30:36.677Z,4.57
2023-03-06T13:33:32.427Z,4.60
2023-03-06T13:36:28.693Z,4.63
2023-03-06T13:39:16.473Z,4.57
2023-03-06T13:41:59.058Z,4.67
2023-03-06T13:44:28.352Z,4.67
2023-03-06T13:47:27.487Z,4.66
2023-03-06T13:49:54.187Z,4.70
2023-03-06T13:52:46.071Z,4.74
2023-03-06T13:55:12.648Z,4.76
2023-03-06T13:57:47.692Z,4.74
2023-03-06T14:00:22.274Z,4.76
2023-03-06T14:03:16.276Z,4.78
2023-03-06T14:05:50.988Z,4.80
2023-03-06T14:08:19.932Z,4.81
2023-03-06T14:11:06.803Z,4.75
2023-03-06T14:13:47.089Z,4.84
2023-03-06T14:16:22.154Z,4.78
2023-03-06T14:18:53.891Z,4.78
2023-03-06T14:21:47.550Z,4.80
2023-03-06T14:24:17.106Z,4.78
2023-03-06T14:26:51.304Z,4.81
2023-03-06T14:29:28.269Z,4.78
2023-03-06T14:32:02.420Z,4.85
2023-03-06T14:34:45.867Z,4.86
2023-03-06T14:37:22.020Z,4.87
2023-03-06T14:39:56.125Z,4.86
2023-03-06T14:42:25.293Z,4.82
2023-03-06T14:45:24.864Z,4.82
2023-03-06T14:47:53.052Z,4.83
2023-03-06T14:50:30.016Z,4.79
2023-03-06T14:52:57.722Z,4.74
2023-03-06T14:55:30.209Z,4.74
2023-03-06T14:58:02.145Z,4.80
2023-03-06T15:00:38.634Z,4.76
2023-03-06T15:03:12.817Z,4.73
2023-03-06T15:05:48.995Z,4.66
2023-03-06T15:08:25.399Z,4.64
2023-03-06T15:11:01.083Z,4.74
2023-03-06T15:13:29.863Z,4.76
2023-03-06T15:16:06.747Z,4.66
2023-03-06T15:18:55.190Z,4.83
2023-03-06T15:21:24.169Z,4.86
2023-03-06T15:23:56.049Z,4.88
2023-03-06T15:26:25.919Z,4.92
2023-03-06T15:29:10.013Z,4.91
2023-03-06T15:31:42.664Z,4.84
2023-03-06T15:34:09.313Z,4.82
2023-03-06T15:36:44.487Z,4.85
2023-03-06T15:39:32.498Z,4.89
2023-03-06T15:42:18.254Z,4.83
2023-03-06T15:44:54.014Z,4.91
2023-03-06T15:47:21.909Z,4.85
2023-03-06T15:49:52.142Z,4.93
2023-03-06T15:52:20.294Z,4.97
2023-03-06T15:54:51.780Z,4.95
2023-03-06T15:57:29.394Z,4.92
2023-03-06T15:59:57.388Z,4.86
2023-03-06T16:02:27.571Z,4.91
2023-03-06T16:04:54.277Z,4.92
2023-03-06T16:07:21.301Z,4.86
2023-03-06T16:09:48.280Z,4.92
2023-03-06T16:12:22.703Z,4.95
2023-03-06T16:14:55.181Z,4.89
2023-03-06T16:17:24.183Z,4.98
2023-03-06T16:19:53.097Z,4.98
2023-03-06T16:22:24.686Z,4.98
2023-03-06T16:24:54.010Z,4.95
2023-03-06T16:27:28.260Z,4.86
2023-03-06T16:29:59.841Z,4.86
2023-03-06T16:32:28.702Z,4.89
2023-03-06T16:34:55.497Z,4.90
2023-03-06T16:37:24.592Z,4.93
2023-03-06T16:39:53.511Z,4.99
2023-03-06T16:42:23.273Z,4.89
2023-03-06T16:44:52.184Z,4.89
2023-03-06T16:47:18.819Z,4.95
2023-03-06T16:49:52.046Z,4.80
2023-03-06T16:52:21.097Z,4.81
2023-03-06T16:54:52.915Z,4.82
2023-03-06T16:57:21.905Z,4.85
2023-03-06T16:59:51.500Z,4.86
2023-03-06T17:02:23.470Z,4.82
2023-03-06T17:04:57.624Z,4.78
2023-03-06T17:07:26.982Z,4.77
2023-03-06T17:09:58.527Z,4.78
2023-03-06T17:12:25.255Z,4.78
2023-03-06T17:14:54.789Z,4.80
2023-03-06T17:17:23.688Z,4.78
2023-03-06T17:19:53.140Z,4.72
2023-03-06T17:22:25.274Z,4.76
2023-03-06T17:24:54.946Z,4.79
2023-03-06T17:27:22.771Z,4.75
2023-03-06T17:29:49.507Z,4.74
2023-03-06T17:32:20.721Z,4.73
2023-03-06T17:34:47.558Z,4.70
2023-03-06T17:37:16.763Z,4.61
2023-03-06T17:39:45.984Z,4.48
2023-03-06T17:42:17.254Z,4.66
2023-03-06T17:44:47.989Z,4.62
2023-03-06T17:47:14.846Z,4.60
2023-03-06T17:49:43.873Z,4.67
2023-03-06T17:52:11.169Z,4.69
2023-03-06T17:54:42.620Z,4.72
2023-03-06T17:57:12.341Z,4.71
2023-03-06T17:59:39.228Z,4.72
2023-03-06T18:02:06.450Z,4.76
2023-03-06T18:04:33.317Z,4.76
2023-03-06T18:07:04.608Z,4.71
2023-03-06T18:09:31.264Z,4.63
2023-03-06T18:12:02.890Z,4.73
2023-03-06T18:14:32.013Z,4.68
2023-03-06T18:16:58.766Z,4.74
2023-03-06T18:19:27.804Z,4.83
2023-03-06T18:21:56.663Z,4.76
2023-03-06T18:24:23.553Z,4.76
2023-03-06T18:26:52.532Z,4.81
2023-03-06T18:29:21.722Z,4.84
2023-03-06T18:31:50.453Z,4.87
2023-03-06T18:34:22.846Z,4.88
2023-03-06T18:36:51.675Z,4.90
2023-03-06T18:39:19.264Z,4.89
2023-03-06T18:41:51.814Z,4.83
2023-03-06T18:44:19.021Z,4.89
2023-03-06T18:46:48.028Z,4.85
2023-03-06T18:49:17.505Z,4.86
2023-03-06T18:51:44.407Z,4.87
2023-03-06T18:54:11.752Z,4.88
2023-03-06T18:56:44.182Z,4.89
2023-03-06T18:59:18.901Z,4.85
2023-03-06T19:01:51.924Z,4.87
2023-03-06T19:04:21.253Z,4.86
2023-03-06T19:06:51.452Z,4.82
2023-03-06T19:09:20.622Z,4.78
2023-03-06T19:11:49.692Z,4.85
2023-03-06T19:14:18.822Z,4.83
2023-03-06T19:16:50.104Z,4.73
2023-03-06T19:19:21.386Z,4.73
2023-03-06T19:21:50.374Z,4.69
2023-03-06T19:24:21.690Z,4.65
2023-03-06T19:26:48.511Z,4.55
2023-03-06T19:29:17.614Z,4.51
2023-03-06T19:31:44.614Z,4.56
2023-03-06T19:34:11.333Z,4.54
2023-03-06T19:36:40.645Z,4.55
2023-03-06T19:39:11.170Z,4.60
2023-03-06T19:41:37.832Z,4.57
2023-03-06T19:44:06.013Z,4.60
2023-03-06T19:46:37.749Z,4.58
2023-03-06T19:49:11.853Z,4.59
2023-03-06T19:51:38.760Z,4.60
2023-03-06T19:54:05.494Z,4.61
2023-03-06T19:56:33.811Z,4.60
2023-03-06T19:59:02.948Z,4.62
2023-03-06T20:01:33.780Z,4.61
2023-03-06T20:04:00.634Z,4.47
2023-03-06T20:06:39.024Z,4.55
2023-03-06T20:09:11.289Z,4.37
2023-03-06T20:11:40.453Z,4.45
2023-03-06T20:14:10.543Z,4.38
2023-03-06T20:16:37.872Z,4.33
2023-03-06T20:19:05.604Z,4.36
2023-03-06T20:21:37.654Z,4.33
2023-03-06T20:24:08.420Z,4.33
2023-03-06T20:26:37.691Z,4.30
2023-03-06T20:29:09.586Z,4.22
2023-03-06T20:31:40.809Z,4.31
2023-03-06T20:34:13.816Z,4.22
2023-03-06T20:36:43.196Z,4.23
2023-03-06T20:39:14.642Z,4.27
2023-03-06T20:41:44.246Z,4.28
2023-03-06T20:44:15.399Z,4.34
2023-03-06T20:46:44.947Z,4.32
2023-03-06T20:49:16.680Z,4.20
2023-03-06T20:51:45.967Z,4.25
2023-03-06T20:54:14.916Z,4.31
2023-03-06T20:56:44.881Z,4.28
2023-03-06T20:59:14.672Z,4.25
2023-03-06T21:01:43.638Z,4.23
2023-03-06T21:04:13.973Z,4.24
2023-03-06T21:06:44.158Z,4.21
2023-03-06T21:09:10.928Z,4.14
2023-03-06T21:11:37.747Z,4.18
2023-03-06T21:14:04.716Z,4.14
2023-03-06T21:16:31.818Z,4.18
2023-03-06T21:19:01.696Z,4.14
2023-03-06T21:21:35.984Z,4.10
2023-03-06T21:24:05.320Z,4.14
2023-03-06T21:26:35.963Z,4.12
2023-03-06T21:29:05.662Z,4.14
2023-03-06T21:31:33.526Z,4.18
2023-03-06T21:34:01.259Z,4.18
2023-03-06T21:36:33.725Z,4.23
2023-03-06T21:39:06.417Z,4.23
2023-03-06T21:41:35.980Z,4.17
2023-03-06T21:44:05.308Z,4.11
2023-03-06T21:46:32.810Z,4.20
2023-03-06T21:49:04.185Z,4.20
2023-03-06T21:51:36.248Z,4.12
2023-03-06T21:54:13.109Z,4.16
2023-03-06T21:56:39.947Z,4.18
2023-03-06T21:59:06.645Z,4.21
2023-03-06T22:01:37.690Z,4.17
2023-03-06T22:04:06.769Z,4.18
2023-03-06T22:06:33.499Z,4.23
2023-03-06T22:09:01.191Z,4.24
2023-03-06T22:11:36.992Z,4.19
2023-03-06T22:14:06.629Z,4.23
2023-03-06T22:16:38.122Z,4.28
2023-03-06T22:19:09.884Z,4.22
2023-03-06T22:21:41.384Z,4.30
2023-03-06T22:24:15.368Z,4.28
2023-03-06T22:26:44.286Z,4.31
2023-03-06T22:29:15.884Z,4.26
2023-03-06T22:31:42.659Z,4.22
2023-03-06T22:34:11.948Z,4.33
2023-03-06T22:36:38.616Z,4.26
2023-03-06T22:39:10.194Z,4.25
2023-03-06T22:41:42.470Z,4.29
2023-03-06T22:44:19.531Z,4.21
2023-03-06T22:46:48.997Z,4.14
2023-03-06T22:49:16.964Z,4.14
2023-03-06T22:51:44.975Z,4.15
2023-03-06T22:54:11.935Z,4.16
2023-03-06T22:56:38.720Z,4.17
2023-03-06T22:59:06.529Z,4.14
2023-03-06T23:01:35.578Z,4.15
2023-03-06T23:04:04.005Z,4.12
2023-03-06T23:06:39.986Z,4.03
2023-03-06T23:09:08.494Z,4.10
2023-03-06T23:11:53.557Z,4.00
2023-03-06T23:14:39.255Z,3.98
2023-03-06T23:17:25.017Z,3.99
2023-03-06T23:20:12.057Z,3.91
2023-03-06T23:22:57.582Z,3.90
2023-03-06T23:25:43.878Z,3.93
2023-03-06T23:28:11.112Z,3.86
2023-03-06T23:30:39.413Z,3.84
2023-03-06T23:33:06.834Z,3.84
2023-03-06T23:35:39.231Z,3.85
2023-03-06T23:38:06.558Z,3.84
2023-03-06T23:40:34.612Z,3.81
2023-03-06T23:43:04.765Z,3.80
2023-03-06T23:45:32.195Z,3.83
2023-03-06T23:47:59.243Z,3.73
2023-03-06T23:50:26.365Z,3.84
2023-03-06T23:52:54.327Z,3.86
2023-03-06T23:55:23.464Z,3.76
2023-03-06T23:57:52.660Z,3.76
